Time;durP1;ratioP1;P1;durP2;ratioP2;P2;SDS_P1;SDS_P2;PMS_P1;PMS_P2;Temp;Humidity;BMP_temperature;BMP_pressure;BME280_temperature;BME280_humidity;BME280_pressure;Samples;Min_cycle;Max_cycle;Signal;HPM_P1;HPM_P2
2024/02/18 00:01:31;;;;;;;;;;;;;;;4.72;57.11;100809.75;5052824;28;19955;-87
2024/02/18 00:03:57;;;;;;;;;;;;;;;4.67;57.09;100820.53;5052563;28;19916;-86
2024/02/18 00:06:22;;;;;;;;;;;;;;;4.61;57.35;100814.91;5052488;28;19966;-86
2024/02/18 00:08:54;;;;;;;;;;;;;;;4.60;57.31;100815.84;5052772;28;19919;-86
2024/02/18 00:11:19;;;;;;;;;;;;;;;4.53;57.58;100819.84;5054160;28;19920;-86
2024/02/18 00:14:12;;;;;;;;;;;;;;;4.52;57.79;100815.53;5053067;28;19917;-85
2024/02/18 00:16:37;;;;;;;;;;;;;;;4.51;57.52;100829.56;5053911;28;20442;-86
2024/02/18 00:22:06;;;;;;;;;;;;;;;4.36;57.73;100823.59;5066365;28;19927;-84
2024/02/18 00:24:59;;;;;;;;;;;;;;;4.28;58.03;100816.28;5067339;28;19913;-85
2024/02/18 00:27:52;;;;;;;;;;;;;;;4.32;58.30;100820.38;5070419;28;19924;-84
2024/02/18 00:33:29;;;;;;;;;;;;;;;4.49;57.79;100823.59;5061097;28;19928;-87
2024/02/18 00:35:55;;;;;;;;;;;;;;;4.55;57.40;100813.56;5053993;28;19913;-86
2024/02/18 00:41:23;;;;;;;;;;;;;;;4.45;57.77;100821.19;5061949;28;19928;-84
2024/02/18 00:43:48;;;;;;;;;;;;;;;4.47;57.43;100813.25;5053047;28;20298;-86
2024/02/18 00:46:20;;;;;;;;;;;;;;;4.47;57.38;100808.03;5054306;28;19924;-85
2024/02/18 00:48:45;;;;;;;;;;;;;;;4.41;57.54;100811.88;5053730;28;19917;-85
2024/02/18 01:18:30;;;;;;;;;;;;;;;4.13;57.58;100784.22;5345091;22;19916;-87
2024/02/18 01:38:57;;;;;;;;;;;;;;;3.95;57.75;100767.19;5312600;22;19936;-88
2024/02/18 01:47:45;;;;;;;;;;;;;;;3.91;57.29;100755.28;5078791;28;19924;-84
2024/02/18 04:56:56;;;;;;;;;;;;;;;3.37;56.93;100776.34;5402977;23;19910;-84
2024/02/18 07:02:12;;;;;;;;;;;;;;;4.43;57.18;100824.84;5217675;23;19969;-84
2024/02/18 07:04:38;;;;;;;;;;;;;;;4.54;56.96;100818.88;4966426;28;19907;-84
2024/02/18 07:07:03;;;;;;;;;;;;;;;4.60;56.53;100829.75;4979401;28;19918;-85
2024/02/18 07:09:28;;;;;;;;;;;;;;;4.65;56.68;100829.44;4970822;29;19942;-85
2024/02/18 07:11:54;;;;;;;;;;;;;;;4.73;56.86;100827.94;4968925;29;19914;-85
2024/02/18 07:14:19;;;;;;;;;;;;;;;4.82;56.91;100830.84;4960726;29;19949;-86
2024/02/18 07:16:44;;;;;;;;;;;;;;;4.90;56.49;100815.44;4957502;29;19914;-87
2024/02/18 07:19:09;;;;;;;;;;;;;;;5.01;56.88;100826.78;4956830;29;19915;-89
2024/02/18 07:21:35;;;;;;;;;;;;;;;5.11;56.62;100830.41;4956435;29;19923;-88
2024/02/18 07:24:00;;;;;;;;;;;;;;;5.18;56.57;100829.97;4939265;29;19914;-90
2024/02/18 07:26:25;;;;;;;;;;;;;;;5.27;57.30;100824.09;4939039;29;19922;-89
2024/02/18 07:28:51;;;;;;;;;;;;;;;5.31;57.63;100821.13;4939083;29;19914;-89
2024/02/18 07:31:16;;;;;;;;;;;;;;;5.37;57.46;100819.84;4939158;29;19914;-89
2024/02/18 07:33:42;;;;;;;;;;;;;;;5.41;57.28;100821.28;4938973;29;20404;-89
2024/02/18 07:36:09;;;;;;;;;;;;;;;5.48;57.42;100827.75;4938916;29;20339;-89
2024/02/18 07:38:34;;;;;;;;;;;;;;;5.54;56.84;100829.91;4938642;29;19998;-90
2024/02/18 07:41:00;;;;;;;;;;;;;;;5.57;57.35;100823.59;4938436;29;19997;-90
2024/02/18 07:43:25;;;;;;;;;;;;;;;5.66;56.97;100826.34;4938633;29;19919;-90
2024/02/18 07:45:50;;;;;;;;;;;;;;;5.73;56.89;100829.34;4938682;29;19914;-91
2024/02/18 07:48:15;;;;;;;;;;;;;;;5.79;56.37;100823.66;4955523;29;19914;-90
2024/02/18 07:50:41;;;;;;;;;;;;;;;5.86;57.38;100816.16;4938245;29;19950;-90
2024/02/18 07:53:06;;;;;;;;;;;;;;;5.95;56.48;100808.50;4938315;29;19914;-90
2024/02/18 07:55:31;;;;;;;;;;;;;;;6.09;56.14;100815.28;4938258;29;19922;-90
2024/02/18 07:57:57;;;;;;;;;;;;;;;6.19;56.70;100818.88;4937498;29;19938;-90
2024/02/18 08:00:22;;;;;;;;;;;;;;;6.26;56.10;100816.63;4938216;29;20001;-90
2024/02/18 08:02:48;;;;;;;;;;;;;;;6.33;56.97;100818.63;4938125;29;19923;-90
2024/02/18 08:05:13;;;;;;;;;;;;;;;6.44;56.18;100811.72;4938261;28;20051;-89
2024/02/18 08:07:38;;;;;;;;;;;;;;;6.52;56.18;100811.94;4938131;28;20004;-90
2024/02/18 08:10:04;;;;;;;;;;;;;;;6.61;56.97;100813.84;4955212;28;19922;-91
2024/02/18 08:12:30;;;;;;;;;;;;;;;6.70;56.80;100813.16;4937980;29;19915;-88
2024/02/18 08:14:55;;;;;;;;;;;;;;;6.80;56.82;100814.06;4938122;28;19937;-88
2024/02/18 08:17:21;;;;;;;;;;;;;;;6.90;57.68;100812.38;4937967;29;20304;-91
2024/02/18 08:19:46;;;;;;;;;;;;;;;6.96;57.36;100806.63;4955239;28;19925;-89
2024/02/18 08:22:11;;;;;;;;;;;;;;;6.97;57.81;100808.31;4955310;28;20008;-88
2024/02/18 08:24:36;;;;;;;;;;;;;;;7.06;58.17;100808.50;4955235;28;19961;-89
2024/02/18 08:27:02;;;;;;;;;;;;;;;7.17;57.26;100814.56;4937861;28;20305;-89
2024/02/18 08:29:27;;;;;;;;;;;;;;;7.29;57.19;100799.59;4937880;28;20376;-89
2024/02/18 08:31:53;;;;;;;;;;;;;;;7.36;58.19;100803.38;4937755;28;20389;-88
2024/02/18 08:34:19;;;;;;;;;;;;;;;7.42;57.61;100802.03;4937738;29;20403;-88
2024/02/18 08:36:45;;;;;;;;;;;;;;;7.43;58.01;100796.69;4937714;28;19921;-88
2024/02/18 08:39:10;;;;;;;;;;;;;;;7.51;57.34;100803.94;4954951;28;19953;-89
2024/02/18 08:41:35;;;;;;;;;;;;;;;7.64;56.92;100805.41;4937602;28;20384;-89
2024/02/18 08:44:00;;;;;;;;;;;;;;;7.73;58.20;100801.19;4937320;29;19914;-88
2024/02/18 08:46:26;;;;;;;;;;;;;;;7.83;58.99;100798.59;4937385;28;19920;-89
2024/02/18 08:48:51;;;;;;;;;;;;;;;7.98;56.55;100799.94;4954813;28;19918;-88
2024/02/18 08:51:16;;;;;;;;;;;;;;;8.13;57.77;100803.88;4937772;29;19915;-89
2024/02/18 08:53:42;;;;;;;;;;;;;;;8.24;56.71;100800.34;4954658;28;19922;-89
2024/02/18 08:56:10;;;;;;;;;;;;;;;8.35;56.76;100794.19;4954544;28;19914;-89
2024/02/18 08:58:36;;;;;;;;;;;;;;;8.45;56.05;100806.44;4937233;29;19914;-88
2024/02/18 09:01:01;;;;;;;;;;;;;;;8.56;54.36;100795.78;4936827;28;19948;-88
2024/02/18 09:03:32;;;;;;;;;;;;;;;8.55;55.97;100786.22;4937166;28;19944;-88
2024/02/18 09:05:58;;;;;;;;;;;;;;;8.60;56.11;100789.28;4936901;29;19914;-89
2024/02/18 09:08:23;;;;;;;;;;;;;;;8.69;55.88;100789.44;4954195;28;20008;-88
2024/02/18 09:10:48;;;;;;;;;;;;;;;8.80;55.66;100792.78;4937069;29;19914;-88
2024/02/18 09:13:14;;;;;;;;;;;;;;;8.89;55.34;100797.25;4954123;28;19925;-88
2024/02/18 09:15:40;;;;;;;;;;;;;;;9.01;55.52;100795.34;4936814;28;19966;-88
2024/02/18 09:18:05;;;;;;;;;;;;;;;9.12;54.95;100786.47;4937100;29;20364;-88
2024/02/18 09:20:30;;;;;;;;;;;;;;;9.18;55.24;100789.38;4936913;28;20387;-88
2024/02/18 09:22:56;;;;;;;;;;;;;;;9.19;55.87;100787.59;4954266;28;19974;-88
2024/02/18 09:25:21;;;;;;;;;;;;;;;9.24;54.52;100788.00;4937156;29;20001;-88
2024/02/18 09:27:47;;;;;;;;;;;;;;;9.36;54.88;100786.88;4936883;28;19961;-88
2024/02/18 09:30:12;;;;;;;;;;;;;;;9.51;54.41;100789.94;4953924;28;19915;-88
2024/02/18 09:32:38;;;;;;;;;;;;;;;9.64;54.05;100785.19;4936615;28;19984;-88
2024/02/18 09:35:03;;;;;;;;;;;;;;;9.72;53.01;100774.78;4936758;28;20006;-88
2024/02/18 09:37:28;;;;;;;;;;;;;;;9.82;52.92;100775.59;4953724;28;19914;-88
2024/02/18 09:39:53;;;;;;;;;;;;;;;9.89;52.55;100781.13;4936419;29;19925;-88
2024/02/18 09:42:19;;;;;;;;;;;;;;;9.97;52.23;100775.97;4936611;29;19921;-88
2024/02/18 09:44:45;;;;;;;;;;;;;;;10.12;51.98;100781.59;4936593;28;20379;-88
2024/02/18 09:47:13;;;;;;;;;;;;;;;10.23;52.25;100776.19;4954069;28;20338;-88
2024/02/18 09:49:39;;;;;;;;;;;;;;;10.29;51.44;100772.13;4953538;28;19944;-88
2024/02/18 09:52:05;;;;;;;;;;;;;;;10.39;51.51;100765.81;4936412;29;19915;-88
2024/02/18 09:54:32;;;;;;;;;;;;;;;10.48;50.95;100753.56;4952587;28;20017;-88
2024/02/18 09:56:57;;;;;;;;;;;;;;;10.61;50.92;100746.13;4936458;28;20005;-88
2024/02/18 09:59:23;;;;;;;;;;;;;;;10.73;50.66;100750.22;4936255;28;20019;-88
2024/02/18 10:01:51;;;;;;;;;;;;;;;10.85;50.86;100753.47;4953384;28;20276;-88
2024/02/18 10:04:17;;;;;;;;;;;;;;;10.96;51.17;100742.69;4936482;29;19941;-88
2024/02/18 10:06:42;;;;;;;;;;;;;;;11.03;50.45;100743.72;4936246;29;19915;-88
2024/02/18 10:09:08;;;;;;;;;;;;;;;11.12;50.05;100734.06;4953471;28;19997;-87
2024/02/18 10:11:33;;;;;;;;;;;;;;;11.19;50.62;100737.78;4953494;28;19915;-88
2024/02/18 10:13:58;;;;;;;;;;;;;;;11.28;49.41;100726.28;4935925;28;19915;-88
2024/02/18 10:16:24;;;;;;;;;;;;;;;11.36;49.69;100726.34;4953694;28;19915;-88
2024/02/18 10:18:49;;;;;;;;;;;;;;;11.43;48.56;100716.81;4953512;28;20279;-87
2024/02/18 10:21:15;;;;;;;;;;;;;;;11.52;48.55;100711.56;4939013;29;19971;-88
2024/02/18 10:23:41;;;;;;;;;;;;;;;11.60;48.49;100706.34;4940202;29;19957;-88
2024/02/18 10:26:08;;;;;;;;;;;;;;;11.66;49.06;100711.00;4940021;28;20357;-88
2024/02/18 10:28:36;;;;;;;;;;;;;;;11.77;48.25;100708.94;4957369;28;19914;-87
2024/02/18 10:31:04;;;;;;;;;;;;;;;11.87;48.33;100703.53;4940032;28;19914;-87
2024/02/18 10:33:29;;;;;;;;;;;;;;;12.02;48.42;100706.44;4957568;28;19936;-87
2024/02/18 10:36:00;;;;;;;;;;;;;;;12.17;47.35;100699.56;4957335;28;19914;-88
2024/02/18 10:38:26;;;;;;;;;;;;;;;12.22;46.04;100699.09;4940247;28;19993;-88
2024/02/18 10:40:59;;;;;;;;;;;;;;;12.26;46.89;100690.66;4957112;28;20324;-87
2024/02/18 10:43:26;;;;;;;;;;;;;;;12.35;46.37;100697.63;4957273;28;20407;-87
2024/02/18 10:45:52;;;;;;;;;;;;;;;12.49;46.21;100698.81;4957029;28;19950;-87
2024/02/18 10:48:18;;;;;;;;;;;;;;;12.63;46.78;100695.56;4956784;28;20412;-87
2024/02/18 10:50:46;;;;;;;;;;;;;;;12.74;46.40;100683.81;4956833;28;19997;-87
2024/02/18 10:53:15;;;;;;;;;;;;;;;12.84;44.85;100691.63;4957045;28;19967;-87
2024/02/18 10:55:59;;;;;;;;;;;;;;;12.91;44.81;100695.28;4943339;29;19939;-87
2024/02/18 10:58:40;;;;;;;;;;;;;;;13.03;45.54;100692.13;4959033;28;20013;-87
2024/02/18 11:01:07;;;;;;;;;;;;;;;13.07;44.66;100676.72;4939452;29;19930;-87
2024/02/18 11:03:49;;;;;;;;;;;;;;;12.95;43.76;100670.09;4956898;28;20013;-86
2024/02/18 11:06:15;;;;;;;;;;;;;;;12.94;44.96;100666.59;4956740;28;19921;-87
2024/02/18 11:08:43;;;;;;;;;;;;;;;12.97;44.53;100660.97;4956488;28;20001;-87
2024/02/18 11:11:08;;;;;;;;;;;;;;;12.98;44.32;100664.47;4939192;28;21102;-87
2024/02/18 11:13:35;;;;;;;;;;;;;;;12.95;44.70;100657.66;4956452;28;19906;-87
2024/02/18 11:16:00;;;;;;;;;;;;;;;12.91;44.75;100658.16;4939400;29;19914;-87
2024/02/18 11:18:26;;;;;;;;;;;;;;;12.84;44.94;100650.03;4956136;28;19915;-87
2024/02/18 11:20:53;;;;;;;;;;;;;;;12.77;45.04;100649.06;4955923;28;20420;-87
2024/02/18 11:23:18;;;;;;;;;;;;;;;12.73;44.82;100655.66;4956159;28;20467;-87
2024/02/18 11:25:45;;;;;;;;;;;;;;;12.66;44.91;100650.19;4956090;28;19914;-87
2024/02/18 11:28:10;;;;;;;;;;;;;;;12.55;45.12;100639.91;4956230;28;19938;-87
2024/02/18 11:30:35;;;;;;;;;;;;;;;12.46;44.87;100643.53;4938750;28;19957;-87
2024/02/18 11:33:01;;;;;;;;;;;;;;;12.36;45.27;100645.50;4937880;29;20304;-87
2024/02/18 11:35:26;;;;;;;;;;;;;;;12.26;46.19;100642.16;4956344;28;19957;-87
2024/02/18 11:37:51;;;;;;;;;;;;;;;12.07;45.94;100641.44;4956457;28;20380;-87
2024/02/18 11:40:20;;;;;;;;;;;;;;;12.02;46.34;100642.94;4956371;28;19918;-87
2024/02/18 11:42:46;;;;;;;;;;;;;;;11.98;46.69;100644.22;4939153;29;20062;-88
2024/02/18 11:45:13;;;;;;;;;;;;;;;11.91;46.32;100640.56;4956421;28;20415;-87
2024/02/18 11:47:44;;;;;;;;;;;;;;;11.83;46.64;100633.41;4938717;29;20005;-87
2024/02/18 11:50:09;;;;;;;;;;;;;;;11.83;47.30;100622.81;4955968;28;19914;-87
2024/02/18 11:52:36;;;;;;;;;;;;;;;11.83;46.83;100633.41;4938487;29;19920;-87
2024/02/18 11:55:11;;;;;;;;;;;;;;;11.84;46.54;100631.59;4955572;28;20414;-88
2024/02/18 11:57:36;;;;;;;;;;;;;;;11.86;46.31;100633.09;4955690;28;20005;-87
2024/02/18 12:00:03;;;;;;;;;;;;;;;11.92;46.90;100637.75;4938386;29;19966;-88
2024/02/18 12:02:29;;;;;;;;;;;;;;;11.94;45.81;100630.50;4955706;28;19927;-87
2024/02/18 12:04:54;;;;;;;;;;;;;;;11.96;47.17;100622.41;4938944;29;20427;-87
2024/02/18 12:07:20;;;;;;;;;;;;;;;11.98;46.33;100626.53;4938842;29;19914;-87
2024/02/18 12:09:46;;;;;;;;;;;;;;;12.03;46.85;100620.75;4955943;28;19977;-87
2024/02/18 12:12:11;;;;;;;;;;;;;;;12.11;47.04;100626.06;4938770;29;19961;-87
2024/02/18 12:14:50;;;;;;;;;;;;;;;12.17;46.00;100622.78;4955808;28;19982;-87
2024/02/18 12:17:16;;;;;;;;;;;;;;;12.21;45.63;100620.63;4938500;28;19922;-87
2024/02/18 12:19:42;;;;;;;;;;;;;;;12.26;45.48;100618.34;4938390;29;19919;-87
2024/02/18 12:22:07;;;;;;;;;;;;;;;12.30;46.02;100619.66;4955673;28;19969;-87
2024/02/18 12:24:32;;;;;;;;;;;;;;;12.30;45.55;100620.50;4955419;28;19973;-87
2024/02/18 12:26:58;;;;;;;;;;;;;;;12.33;45.12;100606.09;4955460;28;19911;-87
2024/02/18 12:29:23;;;;;;;;;;;;;;;12.34;45.30;100616.53;4955938;28;19935;-87
2024/02/18 12:31:49;;;;;;;;;;;;;;;12.38;46.29;100611.72;4955342;28;19915;-87
2024/02/18 12:34:19;;;;;;;;;;;;;;;12.40;45.34;100607.94;4937710;28;19918;-87
2024/02/18 12:36:44;;;;;;;;;;;;;;;12.47;45.81;100615.22;4955009;28;19921;-87
2024/02/18 12:39:10;;;;;;;;;;;;;;;12.54;46.20;100606.44;4937448;28;19915;-87
2024/02/18 12:41:35;;;;;;;;;;;;;;;12.57;46.31;100608.78;4954437;28;19919;-87
2024/02/18 12:44:00;;;;;;;;;;;;;;;12.58;45.28;100601.66;4954267;28;19960;-87
2024/02/18 12:46:26;;;;;;;;;;;;;;;12.61;45.27;100615.41;4954647;28;19961;-87
2024/02/18 12:48:53;;;;;;;;;;;;;;;12.61;45.44;100619.88;4954559;28;20372;-87
2024/02/18 12:51:18;;;;;;;;;;;;;;;12.64;45.59;100623.03;4954404;28;19914;-87
2024/02/18 12:53:44;;;;;;;;;;;;;;;12.62;44.53;100614.41;4937249;29;20352;-87
2024/02/18 12:56:10;;;;;;;;;;;;;;;12.66;44.53;100610.47;4937204;28;19914;-87
2024/02/18 12:58:38;;;;;;;;;;;;;;;12.68;44.95;100616.41;4954539;29;19937;-87
2024/02/18 13:01:06;;;;;;;;;;;;;;;12.70;45.42;100608.31;4954360;28;19929;-87
2024/02/18 13:03:33;;;;;;;;;;;;;;;12.68;45.07;100608.47;4937188;29;19918;-87
2024/02/18 13:05:58;;;;;;;;;;;;;;;12.70;45.66;100617.09;4937001;29;19918;-86
2024/02/18 13:08:23;;;;;;;;;;;;;;;12.73;45.79;100610.63;4937072;29;20384;-86
2024/02/18 13:10:49;;;;;;;;;;;;;;;12.81;45.96;100610.63;4937062;29;19958;-86
2024/02/18 13:13:14;;;;;;;;;;;;;;;12.82;45.69;100614.94;4954199;28;19942;-86
2024/02/18 13:15:39;;;;;;;;;;;;;;;12.85;45.58;100611.13;4936875;28;19918;-86
2024/02/18 13:18:05;;;;;;;;;;;;;;;12.85;45.93;100611.94;4954050;28;19914;-87
2024/02/18 13:20:30;;;;;;;;;;;;;;;12.86;45.59;100608.31;4953779;28;20030;-86
2024/02/18 13:22:57;;;;;;;;;;;;;;;12.87;45.86;100609.97;4936314;28;21632;-87
2024/02/18 13:25:23;;;;;;;;;;;;;;;12.83;44.95;100616.59;4953822;28;19914;-86
2024/02/18 13:27:48;;;;;;;;;;;;;;;12.80;45.59;100616.91;4953838;28;19958;-87
2024/02/18 13:30:13;;;;;;;;;;;;;;;12.77;44.63;100629.66;4953651;28;19922;-86
2024/02/18 13:32:39;;;;;;;;;;;;;;;12.78;45.57;100624.22;4936880;28;19910;-86
2024/02/18 13:35:07;;;;;;;;;;;;;;;12.79;45.35;100622.38;4954110;28;19914;-86
2024/02/18 13:37:32;;;;;;;;;;;;;;;12.82;45.60;100619.41;4954110;28;20045;-87
2024/02/18 13:39:58;;;;;;;;;;;;;;;12.91;45.27;100613.94;4936729;28;19918;-86
2024/02/18 13:42:23;;;;;;;;;;;;;;;13.02;45.64;100624.19;4953935;28;19915;-86
2024/02/18 13:44:48;;;;;;;;;;;;;;;13.11;44.63;100617.06;4953838;28;19942;-86
2024/02/18 13:47:14;;;;;;;;;;;;;;;13.17;44.20;100612.94;4953856;28;20314;-86
2024/02/18 13:49:39;;;;;;;;;;;;;;;13.18;44.48;100622.53;4953662;28;19922;-86
2024/02/18 13:52:05;;;;;;;;;;;;;;;13.20;44.11;100615.25;4953657;28;19921;-87
2024/02/18 13:54:30;;;;;;;;;;;;;;;13.19;44.18;100616.25;4935668;28;19932;-86
2024/02/18 13:56:55;;;;;;;;;;;;;;;13.17;43.72;100619.06;4936402;28;20443;-86
2024/02/18 13:59:20;;;;;;;;;;;;;;;13.12;43.87;100610.75;4953722;29;19922;-86
2024/02/18 14:01:46;;;;;;;;;;;;;;;13.11;44.28;100617.06;4927166;29;20013;-86
2024/02/18 14:04:11;;;;;;;;;;;;;;;13.07;44.79;100613.09;4934541;29;19919;-86
2024/02/18 14:06:38;;;;;;;;;;;;;;;13.07;44.70;100615.72;4934389;29;19915;-86
2024/02/18 14:09:06;;;;;;;;;;;;;;;13.07;45.46;100612.25;4917234;29;19918;-86
2024/02/18 14:11:31;;;;;;;;;;;;;;;13.07;46.25;100612.25;4917328;29;19907;-86
2024/02/18 14:13:56;;;;;;;;;;;;;;;13.02;45.29;100616.25;4934179;29;19922;-86
2024/02/18 14:16:24;;;;;;;;;;;;;;;13.04;45.37;100621.38;4934129;29;19915;-86
2024/02/18 14:18:50;;;;;;;;;;;;;;;13.04;45.14;100613.41;4934240;29;19911;-86
2024/02/18 14:21:16;;;;;;;;;;;;;;;13.07;45.80;100617.56;4934234;29;19926;-86
2024/02/18 14:23:41;;;;;;;;;;;;;;;13.06;45.79;100622.03;4934434;29;19943;-86
2024/02/18 14:26:06;;;;;;;;;;;;;;;13.00;44.47;100614.75;4934310;29;19922;-86
2024/02/18 14:28:32;;;;;;;;;;;;;;;13.01;46.13;100617.22;4917400;29;19970;-86
2024/02/18 14:30:57;;;;;;;;;;;;;;;13.01;45.87;100616.41;4917316;29;19915;-86
2024/02/18 14:33:22;;;;;;;;;;;;;;;13.01;45.87;100619.88;4934259;29;19974;-86
2024/02/18 14:35:48;;;;;;;;;;;;;;;13.01;45.92;100613.75;4917222;29;19922;-86
2024/02/18 14:38:13;;;;;;;;;;;;;;;13.02;46.43;100615.41;4934108;29;19986;-86
2024/02/18 14:40:40;;;;;;;;;;;;;;;13.02;45.50;100618.88;4916802;29;19926;-86
2024/02/18 14:43:06;;;;;;;;;;;;;;;13.02;45.91;100615.41;4933975;29;19921;-86
2024/02/18 14:45:32;;;;;;;;;;;;;;;13.04;46.06;100616.06;4934025;29;19915;-86
2024/02/18 14:47:58;;;;;;;;;;;;;;;13.03;45.63;100612.59;4934192;29;20289;-86
2024/02/18 14:50:24;;;;;;;;;;;;;;;13.06;46.10;100619.38;4933777;29;19921;-86
2024/02/18 14:52:50;;;;;;;;;;;;;;;13.05;46.34;100621.19;4916663;29;19914;-86
2024/02/18 14:55:15;;;;;;;;;;;;;;;13.10;46.39;100619.88;4933746;29;19997;-86
2024/02/18 14:57:41;;;;;;;;;;;;;;;13.07;45.87;100613.09;4933926;29;20088;-86
2024/02/18 15:00:09;;;;;;;;;;;;;;;13.03;45.52;100614.41;4916775;29;19918;-86
2024/02/18 15:02:35;;;;;;;;;;;;;;;12.98;45.82;100612.25;4949441;28;19923;-86
2024/02/18 15:05:02;;;;;;;;;;;;;;;12.96;46.22;100611.59;4935728;28;19922;-86
2024/02/18 15:07:28;;;;;;;;;;;;;;;12.94;45.88;100616.25;4955739;28;20861;-86
2024/02/18 15:09:53;;;;;;;;;;;;;;;12.88;45.78;100621.38;4956294;28;19906;-86
2024/02/18 15:12:18;;;;;;;;;;;;;;;12.82;46.18;100636.13;4956268;28;19939;-86
2024/02/18 15:14:43;;;;;;;;;;;;;;;12.75;46.44;100631.66;4939370;28;19974;-86
2024/02/18 15:17:09;;;;;;;;;;;;;;;12.72;46.72;100635.47;4939231;29;19907;-86
2024/02/18 15:19:36;;;;;;;;;;;;;;;12.68;46.28;100636.78;4956107;28;20058;-86
2024/02/18 15:22:01;;;;;;;;;;;;;;;12.63;46.37;100641.72;4939090;29;20009;-86
2024/02/18 15:24:26;;;;;;;;;;;;;;;12.54;46.18;100638.25;4939025;29;20051;-86
2024/02/18 15:26:51;;;;;;;;;;;;;;;12.51;46.54;100637.75;4938979;29;19919;-86
2024/02/18 15:29:17;;;;;;;;;;;;;;;12.48;46.33;100632.78;4939150;28;19989;-86
2024/02/18 15:31:42;;;;;;;;;;;;;;;12.43;46.71;100641.19;4955891;28;19914;-86
2024/02/18 15:34:08;;;;;;;;;;;;;;;12.37;46.57;100647.97;4938737;29;19921;-87
2024/02/18 15:36:33;;;;;;;;;;;;;;;12.32;46.61;100647.66;4955936;28;19922;-86
2024/02/18 15:38:58;;;;;;;;;;;;;;;12.28;46.92;100653.44;4955932;28;20388;-86
2024/02/18 15:41:24;;;;;;;;;;;;;;;12.25;47.02;100653.75;4955885;28;19923;-86
2024/02/18 15:43:49;;;;;;;;;;;;;;;12.21;47.30;100663.84;4955822;28;19998;-86
2024/02/18 15:46:15;;;;;;;;;;;;;;;12.17;47.44;100666.97;4938406;29;20303;-86
2024/02/18 15:48:40;;;;;;;;;;;;;;;12.14;47.20;100664.63;4938387;28;19914;-86
2024/02/18 15:51:06;;;;;;;;;;;;;;;12.08;47.39;100669.59;4955845;28;20308;-86
2024/02/18 15:53:31;;;;;;;;;;;;;;;12.04;47.21;100670.91;4938406;29;19921;-87
2024/02/18 15:55:57;;;;;;;;;;;;;;;12.01;47.16;100673.84;4955486;28;19965;-87
2024/02/18 15:58:23;;;;;;;;;;;;;;;11.97;47.58;100682.28;4955899;28;19915;-87
2024/02/18 16:00:48;;;;;;;;;;;;;;;11.92;48.07;100674.00;4938195;29;19926;-87
2024/02/18 16:03:16;;;;;;;;;;;;;;;11.89;47.63;100680.44;4955535;28;19919;-87
2024/02/18 16:05:42;;;;;;;;;;;;;;;11.87;47.62;100687.66;4956044;28;19966;-86
2024/02/18 16:08:08;;;;;;;;;;;;;;;11.83;47.85;100683.69;4955475;28;20001;-87
2024/02/18 16:10:33;;;;;;;;;;;;;;;11.80;48.33;100697.22;4955642;28;20325;-87
2024/02/18 16:12:58;;;;;;;;;;;;;;;11.77;48.41;100693.06;4955452;28;19915;-86
2024/02/18 16:15:23;;;;;;;;;;;;;;;11.75;48.21;100699.47;4955247;28;19914;-87
2024/02/18 16:17:49;;;;;;;;;;;;;;;11.73;48.75;100699.63;4937343;29;20336;-87
2024/02/18 16:20:14;;;;;;;;;;;;;;;11.72;48.77;100699.78;4937848;28;20026;-87
2024/02/18 16:22:40;;;;;;;;;;;;;;;11.71;48.64;100706.06;4955418;28;19919;-87
2024/02/18 16:25:05;;;;;;;;;;;;;;;11.05;48.29;100600.88;4938055;28;19946;-87
2024/02/18 16:27:31;;;;;;;;;;;;;;;11.66;48.92;100703.91;4955300;28;20366;-87
2024/02/18 16:29:56;;;;;;;;;;;;;;;11.67;48.89;100702.91;4937624;28;20014;-87
2024/02/18 16:32:22;;;;;;;;;;;;;;;11.65;48.32;100712.00;4954873;28;20249;-87
2024/02/18 16:34:48;;;;;;;;;;;;;;;11.63;48.81;100709.50;4955008;28;19915;-87
2024/02/18 16:37:13;;;;;;;;;;;;;;;11.63;49.33;100711.31;4937677;29;19918;-87
2024/02/18 16:39:44;;;;;;;;;;;;;;;11.62;49.10;100712.31;4937883;28;19958;-87
2024/02/18 16:42:09;;;;;;;;;;;;;;;11.61;48.78;100719.41;4937712;28;19918;-87
2024/02/18 16:44:34;;;;;;;;;;;;;;;11.61;48.94;100713.28;4937713;28;20304;-87
2024/02/18 16:47:02;;;;;;;;;;;;;;;11.61;48.99;100710.66;4954725;28;19915;-87
2024/02/18 16:49:27;;;;;;;;;;;;;;;11.61;48.45;100713.28;4937324;28;20421;-87
2024/02/18 16:51:53;;;;;;;;;;;;;;;11.61;49.10;100718.56;4937272;29;19954;-86
2024/02/18 16:54:18;;;;;;;;;;;;;;;11.58;48.65;100716.25;4937289;28;19927;-86
2024/02/18 16:56:43;;;;;;;;;;;;;;;11.58;49.31;100718.88;4954417;28;19940;-87
2024/02/18 16:59:08;;;;;;;;;;;;;;;11.55;49.08;100716.56;4954655;28;20303;-87
2024/02/18 17:01:34;;;;;;;;;;;;;;;11.56;48.59;100716.41;4929417;29;19982;-86
2024/02/18 17:04:01;;;;;;;;;;;;;;;11.54;48.96;100714.91;4935153;29;20347;-86
2024/02/18 17:06:26;;;;;;;;;;;;;;;11.52;48.77;100724.81;4935137;29;19921;-86
2024/02/18 17:08:52;;;;;;;;;;;;;;;11.51;49.41;100718.69;4934905;29;20001;-86
2024/02/18 17:11:17;;;;;;;;;;;;;;;11.50;49.46;100721.47;4917778;29;19961;-86
2024/02/18 17:13:44;;;;;;;;;;;;;;;11.49;49.11;100723.28;4934870;29;20379;-86
2024/02/18 17:16:11;;;;;;;;;;;;;;;11.50;49.06;100722.31;4934854;29;19922;-86
2024/02/18 17:18:37;;;;;;;;;;;;;;;11.52;49.23;100722.16;4934789;29;19907;-86
2024/02/18 17:21:03;;;;;;;;;;;;;;;11.51;49.24;100728.44;4934954;29;19975;-86
2024/02/18 17:23:28;;;;;;;;;;;;;;;11.53;49.18;100727.28;4917787;29;20435;-86
2024/02/18 17:25:53;;;;;;;;;;;;;;;11.53;49.20;100723.81;4934828;29;19930;-86
2024/02/18 17:28:18;;;;;;;;;;;;;;;11.53;49.45;100726.47;4934793;29;19918;-86
2024/02/18 17:30:44;;;;;;;;;;;;;;;11.52;49.15;100727.44;4917823;29;19966;-86
2024/02/18 17:33:09;;;;;;;;;;;;;;;11.53;49.35;100729.94;4917832;29;19919;-86
2024/02/18 17:35:34;;;;;;;;;;;;;;;11.54;49.28;100728.13;4934734;29;20368;-86
2024/02/18 17:37:59;;;;;;;;;;;;;;;11.53;49.35;100724.66;4934803;29;19962;-86
2024/02/18 17:40:25;;;;;;;;;;;;;;;11.52;49.09;100730.09;4917683;29;19919;-86
2024/02/18 17:42:50;;;;;;;;;;;;;;;11.51;49.27;100723.16;4934992;29;19915;-86
2024/02/18 17:45:16;;;;;;;;;;;;;;;11.51;49.30;100731.91;4917900;29;19915;-86
2024/02/18 17:47:43;;;;;;;;;;;;;;;11.50;49.24;100724.97;4917519;29;19914;-86
2024/02/18 17:50:09;;;;;;;;;;;;;;;11.49;49.77;100723.28;4917532;29;20328;-86
2024/02/18 17:52:34;;;;;;;;;;;;;;;11.48;50.14;100718.16;4917470;29;19914;-86
2024/02/18 17:54:59;;;;;;;;;;;;;;;11.50;49.41;100721.47;4934383;29;19915;-87
2024/02/18 17:57:25;;;;;;;;;;;;;;;11.49;49.72;100714.53;4934527;29;19915;-86
2024/02/18 17:59:53;;;;;;;;;;;;;;;11.48;49.56;100716.34;4917358;29;19991;-86
2024/02/18 18:02:18;;;;;;;;;;;;;;;11.46;49.63;100713.84;4917283;29;19923;-86
2024/02/18 18:04:45;;;;;;;;;;;;;;;11.47;49.56;100712.03;4934277;29;19930;-86
2024/02/18 18:07:10;;;;;;;;;;;;;;;11.48;50.35;100712.88;4917131;29;19919;-86
2024/02/18 18:09:36;;;;;;;;;;;;;;;11.48;49.98;100712.88;4934370;29;19922;-86
2024/02/18 18:12:02;;;;;;;;;;;;;;;11.46;50.00;100716.50;4934356;29;19915;-86
2024/02/18 18:14:28;;;;;;;;;;;;;;;11.45;50.00;100709.56;4917236;29;20427;-86
2024/02/18 18:16:53;;;;;;;;;;;;;;;11.47;49.82;100717.34;4934306;29;19959;-86
2024/02/18 18:19:18;;;;;;;;;;;;;;;11.48;49.63;100718.16;4934391;29;19915;-86
2024/02/18 18:21:43;;;;;;;;;;;;;;;11.47;50.22;100712.03;4934052;29;20009;-86
2024/02/18 18:24:09;;;;;;;;;;;;;;;11.47;49.98;100712.03;4934243;29;19919;-86
2024/02/18 18:26:34;;;;;;;;;;;;;;;11.47;49.71;100706.75;4934184;29;20302;-86
2024/02/18 18:28:59;;;;;;;;;;;;;;;11.44;49.35;100705.25;4934236;29;19922;-86
2024/02/18 18:31:25;;;;;;;;;;;;;;;11.44;49.63;100707.91;4934282;29;20056;-86
2024/02/18 18:33:50;;;;;;;;;;;;;;;11.44;50.43;100712.34;4917085;29;20447;-86
2024/02/18 18:36:15;;;;;;;;;;;;;;;11.44;49.98;100709.72;4934218;29;19922;-86
2024/02/18 18:38:41;;;;;;;;;;;;;;;11.44;49.82;100712.34;4916968;29;19926;-86
2024/02/18 18:41:06;;;;;;;;;;;;;;;11.43;49.44;100708.88;4934960;29;19941;-86
2024/02/18 18:43:32;;;;;;;;;;;;;;;11.42;50.19;100707.22;4920687;29;19962;-86
2024/02/18 18:45:59;;;;;;;;;;;;;;;11.40;49.89;100709.19;4937879;29;19915;-86